Terminal Aerodrome Forecast
Issued by NWS

Home | Current Version | Previous Version | Text Only | Print | Product List | Glossary On
Versions: 1 2 3 4 5 6 7 8 9 10 11 12 13 14 15
000
FTUS45 KGJT 251729
TAFEGE
TAF
KEGE 251729Z 2518/2618 20014G23KT P6SM VCSH SCT100
     FM252000 23023G35KT P6SM VCTS BKN100CB
     FM260100 26011G19KT P6SM VCSH BKN080
     FM260500 09004KT P6SM VCSH BKN080
     FM261200 VRB04KT P6SM BKN100=

USA.gov is the U.S. government's official web portal to all federal, state and local government web resources and services.